Thursday, January 29, 2015
20:24 UTC
  |  Log In   |  Register Free
Airport Search:

Norwood Memorial Airport
(KOWD)

FAA data valid effective January 08, 2015 - March 05, 2015 (unless otherwise noted).

 
 
 
 
 
 
 
 
 
 
 
 
 
 

Current Aviation Weather for Norwood Memorial Airport (KOWD)

The most recent METAR observation for KOWD was updated at: 2017
METAR Summary (Translated METAR)
KOWD
291953Z 14005KT 10SM CLR 01/M10 A3020 RMK AO2 SLP225 T00111100
KBOS
291954Z 00000KT 10SM FEW060 SCT250 M01/M08 A3021 RMK AO2 SLP230 T10111078 $
(12.7 nm NE from KOWD)
KBED
291956Z 12006KT 10SM CLR M01/M08 A3018 RMK AO2 SLP240 T10111083
(17.6 nm NW from KOWD)
TAF Summary (Translated TAF)
KBOS
(12.7 nm NE from KOWD)
291728Z 2918/3024 VRB03KT P6SM BKN250 FM300300 17006KT P6SM BKN100 FM300600 16008KT P6SM OVC020 FM300700 16008KT P6SM -SN OVC015 FM300900 15008KT 2SM -SN OVC010 FM301500 18006KT 1SM -SN OVC003 FM301700 26006KT 1SM -SN OVC003 FM302100 30009KT 2SM -SN OVC008 FM302300 30013G22KT 3SM -SN OVC008
KBED
(17.6 nm NW from KOWD)
291728Z 2918/3018 VRB03KT P6SM BKN250 FM300200 VRB03KT P6SM BKN110 FM300600 16004KT P6SM -SN OVC010 FM300800 15005KT 2SM -SN OVC010 FM301500 18004KT 1SM -SN OVC003 FM301700 28005KT 1SM -SN OVC003
  Airport Weather Conditions for KOWD

 Current Weather at OWD
34° F
Fair
Southeast winds at 5.8 mph
OWD NOAA Radar

Pressure: 30.20 in
Humidity: 44%
Wind: Southeast at 5.8 MPH (5 KT)
Dew Point: 14.0°F
Visibility: 10.00 mi


Airport Weather Forecast for KOWD

Translated METAR and TAF for KOWD
Translated METAR for KOWD (2025 UTC 29 January 2015)
found at http://aviationweather.gov/adds/metars/
 
METAR text: KOWD 291953Z 14005KT 10SM CLR 01/M10 A3020 RMK AO2 SLP225 T00111100
Conditions at: KOWD (NORWOOD , MA, US) observed 1953 UTC 29 January 2015
Temperature: 1.1°C (34°F)
Dewpoint: -10.0°C (14°F) [RH = 43%]
Pressure (altimeter): 30.20 inches Hg (1022.8 mb)
[Sea-level pressure: 1022.5 mb]
Winds: from the SE (140 degrees) at 6 MPH (5 knots; 2.6 m/s)
Visibility: 10 or more miles (16+ km)
Ceiling: at least 12,000 feet AGL
Clouds: sky clear below 12,000 feet AGL
Weather: no significant weather observed at this time
Translated TAF for KOWD

There is no translated TAF available for this airport

Find All Airport Services Find A Hotel Find A Rental Car Find A Golf Course Find A Restaurant $100 Hamburger



FBO's on the Field
FBO Company Facility Photos Services Transportation Aviation Fuel Prices: Prices include tax
Catering Weather Repair Courtesy Rental Type 100LL JetA JetA+ MOGAS 8087
 
FlightLevel Aviation

Currently rated 2.7 by 2 people
FS:Shell
Last Updated: Jan-23
Login to update fuel prices
SS:
Contact FlightLevel AviationMore FBO Information
 
Add another FBO Facility Photos Catering Weather Repair Courtesy Rental Type 100LL JetA JetA+ MOGAS 8087
Services Transportation Aviation Fuel Prices: Prices include tax


model-print
model-print
model-print
model-print